sensor_id;sensor_type;location;lat;lon;timestamp;temperature;humidity
12926;DHT22;6529;50.566;9.774;2022-07-23T00:01:23;21.50;99.90
12926;DHT22;6529;50.566;9.774;2022-07-23T00:03:49;21.50;99.90
12926;DHT22;6529;50.566;9.774;2022-07-23T00:06:15;21.50;99.90
12926;DHT22;6529;50.566;9.774;2022-07-23T00:08:40;21.40;99.90
12926;DHT22;6529;50.566;9.774;2022-07-23T00:11:06;21.40;99.90
12926;DHT22;6529;50.566;9.774;2022-07-23T00:13:32;21.40;99.90
12926;DHT22;6529;50.566;9.774;2022-07-23T00:15:57;21.40;99.90
12926;DHT22;6529;50.566;9.774;2022-07-23T00:18:23;21.40;99.90
12926;DHT22;6529;50.566;9.774;2022-07-23T00:20:49;21.40;99.90
12926;DHT22;6529;50.566;9.774;2022-07-23T00:23:15;21.40;99.90
12926;DHT22;6529;50.566;9.774;2022-07-23T00:25:40;21.40;99.90
12926;DHT22;6529;50.566;9.774;2022-07-23T00:28:06;21.20;99.90
12926;DHT22;6529;50.566;9.774;2022-07-23T00:30:32;21.20;99.90
12926;DHT22;6529;50.566;9.774;2022-07-23T00:33:00;21.00;99.90
12926;DHT22;6529;50.566;9.774;2022-07-23T00:35:30;21.10;99.90
12926;DHT22;6529;50.566;9.774;2022-07-23T00:37:56;21.10;99.90
12926;DHT22;6529;50.566;9.774;2022-07-23T00:40:23;21.10;99.90
12926;DHT22;6529;50.566;9.774;2022-07-23T00:42:49;21.10;99.90
12926;DHT22;6529;50.566;9.774;2022-07-23T00:45:14;21.10;99.90
12926;DHT22;6529;50.566;9.774;2022-07-23T00:47:40;21.10;99.90
12926;DHT22;6529;50.566;9.774;2022-07-23T00:50:07;21.00;99.90
12926;DHT22;6529;50.566;9.774;2022-07-23T00:52:35;21.00;99.90
12926;DHT22;6529;50.566;9.774;2022-07-23T00:55:01;21.00;99.90
12926;DHT22;6529;50.566;9.774;2022-07-23T00:57:27;20.90;99.90
12926;DHT22;6529;50.566;9.774;2022-07-23T00:59:52;20.90;99.90
12926;DHT22;6529;50.566;9.774;2022-07-23T01:02:18;20.90;99.90
12926;DHT22;6529;50.566;9.774;2022-07-23T01:04:43;20.80;99.90
12926;DHT22;6529;50.566;9.774;2022-07-23T01:07:09;20.70;99.90
12926;DHT22;6529;50.566;9.774;2022-07-23T01:09:35;20.70;99.90
12926;DHT22;6529;50.566;9.774;2022-07-23T01:12:02;20.70;99.90
12926;DHT22;6529;50.566;9.774;2022-07-23T01:14:27;20.70;99.90
12926;DHT22;6529;50.566;9.774;2022-07-23T01:16:53;20.80;99.90
12926;DHT22;6529;50.566;9.774;2022-07-23T01:19:19;20.40;99.90
12926;DHT22;6529;50.566;9.774;2022-07-23T01:21:47;20.10;99.90
12926;DHT22;6529;50.566;9.774;2022-07-23T01:24:14;20.00;99.90
12926;DHT22;6529;50.566;9.774;2022-07-23T01:26:43;20.00;99.90
12926;DHT22;6529;50.566;9.774;2022-07-23T01:29:09;20.00;99.90
12926;DHT22;6529;50.566;9.774;2022-07-23T01:31:36;20.00;99.90
12926;DHT22;6529;50.566;9.774;2022-07-23T01:34:01;20.00;99.90
12926;DHT22;6529;50.566;9.774;2022-07-23T01:36:27;19.90;99.90
12926;DHT22;6529;50.566;9.774;2022-07-23T01:38:53;19.80;99.90
12926;DHT22;6529;50.566;9.774;2022-07-23T01:41:19;19.70;99.90
12926;DHT22;6529;50.566;9.774;2022-07-23T01:43:45;19.80;99.90
12926;DHT22;6529;50.566;9.774;2022-07-23T01:46:11;19.60;99.90
12926;DHT22;6529;50.566;9.774;2022-07-23T01:48:36;19.80;99.90
12926;DHT22;6529;50.566;9.774;2022-07-23T01:51:02;19.80;99.90
12926;DHT22;6529;50.566;9.774;2022-07-23T01:53:28;20.00;99.90
12926;DHT22;6529;50.566;9.774;2022-07-23T01:55:57;20.00;99.90
12926;DHT22;6529;50.566;9.774;2022-07-23T01:58:22;20.10;99.90
12926;DHT22;6529;50.566;9.774;2022-07-23T02:00:48;20.10;99.90
12926;DHT22;6529;50.566;9.774;2022-07-23T02:03:13;19.80;99.90
12926;DHT22;6529;50.566;9.774;2022-07-23T02:05:39;19.70;99.90
12926;DHT22;6529;50.566;9.774;2022-07-23T02:08:05;19.70;99.90
12926;DHT22;6529;50.566;9.774;2022-07-23T02:10:31;19.50;99.90
12926;DHT22;6529;50.566;9.774;2022-07-23T02:12:56;19.60;99.90
12926;DHT22;6529;50.566;9.774;2022-07-23T02:15:22;19.60;99.90
12926;DHT22;6529;50.566;9.774;2022-07-23T02:17:47;19.40;99.90
12926;DHT22;6529;50.566;9.774;2022-07-23T02:20:13;19.00;99.90
12926;DHT22;6529;50.566;9.774;2022-07-23T02:22:39;19.00;99.90
12926;DHT22;6529;50.566;9.774;2022-07-23T02:25:06;19.00;99.90
12926;DHT22;6529;50.566;9.774;2022-07-23T02:27:32;19.10;99.90
12926;DHT22;6529;50.566;9.774;2022-07-23T02:29:58;19.20;99.90
12926;DHT22;6529;50.566;9.774;2022-07-23T02:32:24;19.30;99.90
12926;DHT22;6529;50.566;9.774;2022-07-23T02:34:50;19.40;99.90
12926;DHT22;6529;50.566;9.774;2022-07-23T02:37:16;19.40;99.90
12926;DHT22;6529;50.566;9.774;2022-07-23T02:39:42;19.40;99.90
12926;DHT22;6529;50.566;9.774;2022-07-23T02:42:08;19.50;99.90
12926;DHT22;6529;50.566;9.774;2022-07-23T02:44:34;19.40;99.90
12926;DHT22;6529;50.566;9.774;2022-07-23T02:46:59;19.40;99.90
12926;DHT22;6529;50.566;9.774;2022-07-23T02:49:25;19.40;99.90
12926;DHT22;6529;50.566;9.774;2022-07-23T02:51:51;19.40;99.90
12926;DHT22;6529;50.566;9.774;2022-07-23T02:54:17;19.40;99.90
12926;DHT22;6529;50.566;9.774;2022-07-23T02:56:42;19.40;99.90
12926;DHT22;6529;50.566;9.774;2022-07-23T02:59:08;19.40;99.90
12926;DHT22;6529;50.566;9.774;2022-07-23T03:01:34;19.20;99.90
12926;DHT22;6529;50.566;9.774;2022-07-23T03:04:00;19.20;99.90
12926;DHT22;6529;50.566;9.774;2022-07-23T03:06:25;19.20;99.90
12926;DHT22;6529;50.566;9.774;2022-07-23T03:08:51;19.30;99.90
12926;DHT22;6529;50.566;9.774;2022-07-23T03:11:17;19.30;99.90
12926;DHT22;6529;50.566;9.774;2022-07-23T03:13:42;19.30;99.90
12926;DHT22;6529;50.566;9.774;2022-07-23T03:16:08;19.30;99.90
12926;DHT22;6529;50.566;9.774;2022-07-23T03:18:34;19.30;99.90
12926;DHT22;6529;50.566;9.774;2022-07-23T03:20:59;19.30;99.90
12926;DHT22;6529;50.566;9.774;2022-07-23T03:23:25;19.20;99.90
12926;DHT22;6529;50.566;9.774;2022-07-23T03:25:51;19.20;99.90
12926;DHT22;6529;50.566;9.774;2022-07-23T03:28:17;19.10;99.90
12926;DHT22;6529;50.566;9.774;2022-07-23T03:30:47;19.10;99.90
12926;DHT22;6529;50.566;9.774;2022-07-23T03:33:14;19.10;99.90
12926;DHT22;6529;50.566;9.774;2022-07-23T03:35:40;19.20;99.90
12926;DHT22;6529;50.566;9.774;2022-07-23T03:38:05;19.20;99.90
12926;DHT22;6529;50.566;9.774;2022-07-23T03:40:31;19.20;99.90
12926;DHT22;6529;50.566;9.774;2022-07-23T03:42:57;19.00;99.90
12926;DHT22;6529;50.566;9.774;2022-07-23T03:45:23;19.00;99.90
12926;DHT22;6529;50.566;9.774;2022-07-23T03:47:48;18.90;99.90
12926;DHT22;6529;50.566;9.774;2022-07-23T03:50:14;19.00;99.90
12926;DHT22;6529;50.566;9.774;2022-07-23T03:52:40;19.10;99.90
12926;DHT22;6529;50.566;9.774;2022-07-23T03:55:06;19.10;99.90
12926;DHT22;6529;50.566;9.774;2022-07-23T03:57:31;19.10;99.90
12926;DHT22;6529;50.566;9.774;2022-07-23T03:59:57;19.20;99.90
12926;DHT22;6529;50.566;9.774;2022-07-23T04:02:23;19.20;99.90
12926;DHT22;6529;50.566;9.774;2022-07-23T04:04:49;19.20;99.90
12926;DHT22;6529;50.566;9.774;2022-07-23T04:07:15;19.20;99.90
12926;DHT22;6529;50.566;9.774;2022-07-23T04:09:40;19.20;99.90
12926;DHT22;6529;50.566;9.774;2022-07-23T04:12:07;19.20;99.90
12926;DHT22;6529;50.566;9.774;2022-07-23T04:14:33;19.20;99.90
12926;DHT22;6529;50.566;9.774;2022-07-23T04:16:59;19.10;99.90
12926;DHT22;6529;50.566;9.774;2022-07-23T04:19:25;19.10;99.90
12926;DHT22;6529;50.566;9.774;2022-07-23T04:21:51;19.10;99.90
12926;DHT22;6529;50.566;9.774;2022-07-23T04:24:16;19.00;99.90
12926;DHT22;6529;50.566;9.774;2022-07-23T04:26:42;19.00;99.90
12926;DHT22;6529;50.566;9.774;2022-07-23T04:29:07;19.00;99.90
12926;DHT22;6529;50.566;9.774;2022-07-23T04:31:34;19.00;99.90
12926;DHT22;6529;50.566;9.774;2022-07-23T04:34:00;19.00;99.90
12926;DHT22;6529;50.566;9.774;2022-07-23T04:36:25;19.00;99.90
12926;DHT22;6529;50.566;9.774;2022-07-23T04:38:51;19.00;99.90
12926;DHT22;6529;50.566;9.774;2022-07-23T04:41:16;18.90;99.90
12926;DHT22;6529;50.566;9.774;2022-07-23T04:43:42;19.00;99.90
12926;DHT22;6529;50.566;9.774;2022-07-23T04:46:07;19.00;99.90
12926;DHT22;6529;50.566;9.774;2022-07-23T04:48:33;19.10;99.90
12926;DHT22;6529;50.566;9.774;2022-07-23T04:50:59;19.10;99.90
12926;DHT22;6529;50.566;9.774;2022-07-23T04:53:24;19.10;99.90
12926;DHT22;6529;50.566;9.774;2022-07-23T04:55:50;19.10;99.90
12926;DHT22;6529;50.566;9.774;2022-07-23T04:58:16;19.10;99.90
12926;DHT22;6529;50.566;9.774;2022-07-23T05:00:41;19.10;99.90
12926;DHT22;6529;50.566;9.774;2022-07-23T05:03:07;19.10;99.90
12926;DHT22;6529;50.566;9.774;2022-07-23T05:05:32;19.20;99.90
12926;DHT22;6529;50.566;9.774;2022-07-23T05:07:58;19.20;99.90
12926;DHT22;6529;50.566;9.774;2022-07-23T05:10:23;19.20;99.90
12926;DHT22;6529;50.566;9.774;2022-07-23T05:12:49;19.20;99.90
12926;DHT22;6529;50.566;9.774;2022-07-23T05:15:15;19.70;99.90
12926;DHT22;6529;50.566;9.774;2022-07-23T05:17:40;20.20;99.90
12926;DHT22;6529;50.566;9.774;2022-07-23T05:20:06;20.70;99.90
12926;DHT22;6529;50.566;9.774;2022-07-23T05:22:32;21.00;99.90
12926;DHT22;6529;50.566;9.774;2022-07-23T05:24:58;21.10;99.90
12926;DHT22;6529;50.566;9.774;2022-07-23T05:27:24;20.50;99.90
12926;DHT22;6529;50.566;9.774;2022-07-23T05:29:49;20.70;99.90
12926;DHT22;6529;50.566;9.774;2022-07-23T05:32:15;20.60;99.90
12926;DHT22;6529;50.566;9.774;2022-07-23T05:34:41;20.30;99.90
12926;DHT22;6529;50.566;9.774;2022-07-23T05:37:06;20.40;99.90
12926;DHT22;6529;50.566;9.774;2022-07-23T05:39:32;20.50;99.90
12926;DHT22;6529;50.566;9.774;2022-07-23T05:41:57;20.50;99.90
12926;DHT22;6529;50.566;9.774;2022-07-23T05:44:23;20.10;99.90
12926;DHT22;6529;50.566;9.774;2022-07-23T05:46:49;20.10;99.90
12926;DHT22;6529;50.566;9.774;2022-07-23T05:49:14;20.30;99.90
12926;DHT22;6529;50.566;9.774;2022-07-23T05:51:40;20.80;99.90
12926;DHT22;6529;50.566;9.774;2022-07-23T05:54:05;21.20;99.90
12926;DHT22;6529;50.566;9.774;2022-07-23T05:56:31;21.50;99.90
12926;DHT22;6529;50.566;9.774;2022-07-23T05:58:57;21.60;99.90
12926;DHT22;6529;50.566;9.774;2022-07-23T06:01:22;21.70;99.90
12926;DHT22;6529;50.566;9.774;2022-07-23T06:03:48;21.50;99.90
12926;DHT22;6529;50.566;9.774;2022-07-23T06:06:14;21.50;99.90
12926;DHT22;6529;50.566;9.774;2022-07-23T06:08:39;21.10;99.90
12926;DHT22;6529;50.566;9.774;2022-07-23T06:11:05;21.20;99.90
12926;DHT22;6529;50.566;9.774;2022-07-23T06:13:30;21.30;99.90
12926;DHT22;6529;50.566;9.774;2022-07-23T06:15:56;21.50;99.90
12926;DHT22;6529;50.566;9.774;2022-07-23T06:18:22;21.60;99.90
12926;DHT22;6529;50.566;9.774;2022-07-23T06:20:47;21.70;99.90
12926;DHT22;6529;50.566;9.774;2022-07-23T06:23:13;21.90;99.90
12926;DHT22;6529;50.566;9.774;2022-07-23T06:25:38;22.00;99.90
12926;DHT22;6529;50.566;9.774;2022-07-23T06:28:04;21.60;99.90
12926;DHT22;6529;50.566;9.774;2022-07-23T06:30:30;21.70;99.90
12926;DHT22;6529;50.566;9.774;2022-07-23T06:32:56;21.90;99.90
12926;DHT22;6529;50.566;9.774;2022-07-23T06:35:22;22.10;99.90
12926;DHT22;6529;50.566;9.774;2022-07-23T06:37:48;22.00;99.90
12926;DHT22;6529;50.566;9.774;2022-07-23T06:40:13;21.80;99.90
12926;DHT22;6529;50.566;9.774;2022-07-23T06:42:39;21.60;99.90
12926;DHT22;6529;50.566;9.774;2022-07-23T06:45:06;21.40;99.90
12926;DHT22;6529;50.566;9.774;2022-07-23T06:47:32;21.40;99.90
12926;DHT22;6529;50.566;9.774;2022-07-23T06:49:58;21.60;99.90
12926;DHT22;6529;50.566;9.774;2022-07-23T06:52:23;21.80;99.90
12926;DHT22;6529;50.566;9.774;2022-07-23T06:54:49;22.00;99.90
12926;DHT22;6529;50.566;9.774;2022-07-23T06:57:15;21.90;99.90
12926;DHT22;6529;50.566;9.774;2022-07-23T06:59:40;21.90;99.90
12926;DHT22;6529;50.566;9.774;2022-07-23T07:02:07;22.10;99.90
12926;DHT22;6529;50.566;9.774;2022-07-23T07:04:33;22.20;99.90
12926;DHT22;6529;50.566;9.774;2022-07-23T07:06:59;22.20;99.90
12926;DHT22;6529;50.566;9.774;2022-07-23T07:09:24;21.90;99.90
12926;DHT22;6529;50.566;9.774;2022-07-23T07:11:50;21.60;99.90
12926;DHT22;6529;50.566;9.774;2022-07-23T07:14:16;21.20;99.90
12926;DHT22;6529;50.566;9.774;2022-07-23T07:16:41;21.50;99.90
12926;DHT22;6529;50.566;9.774;2022-07-23T07:19:07;21.60;99.90
12926;DHT22;6529;50.566;9.774;2022-07-23T07:21:32;21.50;99.90
12926;DHT22;6529;50.566;9.774;2022-07-23T07:23:58;21.60;99.90
12926;DHT22;6529;50.566;9.774;2022-07-23T07:26:24;21.40;99.90
12926;DHT22;6529;50.566;9.774;2022-07-23T07:28:49;21.30;99.90
12926;DHT22;6529;50.566;9.774;2022-07-23T07:31:15;21.50;99.90
12926;DHT22;6529;50.566;9.774;2022-07-23T07:33:40;21.10;99.90
12926;DHT22;6529;50.566;9.774;2022-07-23T07:36:06;21.30;99.90
12926;DHT22;6529;50.566;9.774;2022-07-23T07:38:32;21.10;99.90
12926;DHT22;6529;50.566;9.774;2022-07-23T07:40:57;21.00;99.90
12926;DHT22;6529;50.566;9.774;2022-07-23T07:43:23;20.80;99.90
12926;DHT22;6529;50.566;9.774;2022-07-23T07:45:49;20.90;99.90
12926;DHT22;6529;50.566;9.774;2022-07-23T07:48:14;21.00;99.90
12926;DHT22;6529;50.566;9.774;2022-07-23T07:50:40;21.00;99.90
12926;DHT22;6529;50.566;9.774;2022-07-23T07:53:05;21.10;99.90
12926;DHT22;6529;50.566;9.774;2022-07-23T07:55:31;21.10;99.90
12926;DHT22;6529;50.566;9.774;2022-07-23T07:57:58;21.30;99.90
12926;DHT22;6529;50.566;9.774;2022-07-23T08:00:23;21.30;99.90
12926;DHT22;6529;50.566;9.774;2022-07-23T08:02:51;21.30;99.90
12926;DHT22;6529;50.566;9.774;2022-07-23T08:05:27;21.30;99.90
12926;DHT22;6529;50.566;9.774;2022-07-23T08:07:54;20.90;99.90
12926;DHT22;6529;50.566;9.774;2022-07-23T08:10:19;20.90;99.90
12926;DHT22;6529;50.566;9.774;2022-07-23T08:12:51;20.90;99.90
12926;DHT22;6529;50.566;9.774;2022-07-23T08:15:19;21.10;99.90
12926;DHT22;6529;50.566;9.774;2022-07-23T08:17:47;20.90;99.90
12926;DHT22;6529;50.566;9.774;2022-07-23T08:20:14;21.00;99.90
12926;DHT22;6529;50.566;9.774;2022-07-23T08:22:44;21.10;99.90
12926;DHT22;6529;50.566;9.774;2022-07-23T08:25:10;21.10;99.90
12926;DHT22;6529;50.566;9.774;2022-07-23T08:27:36;21.30;99.90
12926;DHT22;6529;50.566;9.774;2022-07-23T08:30:01;21.60;99.90
12926;DHT22;6529;50.566;9.774;2022-07-23T08:32:27;21.80;99.90
12926;DHT22;6529;50.566;9.774;2022-07-23T08:34:53;21.90;99.90
12926;DHT22;6529;50.566;9.774;2022-07-23T08:37:18;21.70;99.90
12926;DHT22;6529;50.566;9.774;2022-07-23T08:39:44;21.70;99.90
12926;DHT22;6529;50.566;9.774;2022-07-23T08:42:09;21.90;99.90
12926;DHT22;6529;50.566;9.774;2022-07-23T08:44:35;22.20;99.90
12926;DHT22;6529;50.566;9.774;2022-07-23T08:47:01;22.30;99.90
12926;DHT22;6529;50.566;9.774;2022-07-23T08:49:28;22.10;99.90
12926;DHT22;6529;50.566;9.774;2022-07-23T08:51:55;21.80;99.90
12926;DHT22;6529;50.566;9.774;2022-07-23T08:54:22;21.80;99.90
12926;DHT22;6529;50.566;9.774;2022-07-23T08:56:48;21.50;99.90
12926;DHT22;6529;50.566;9.774;2022-07-23T08:59:14;21.50;99.90
12926;DHT22;6529;50.566;9.774;2022-07-23T09:01:39;21.40;99.90
12926;DHT22;6529;50.566;9.774;2022-07-23T09:04:05;21.40;99.90
12926;DHT22;6529;50.566;9.774;2022-07-23T09:06:31;21.60;99.90
12926;DHT22;6529;50.566;9.774;2022-07-23T09:08:57;21.70;99.90
12926;DHT22;6529;50.566;9.774;2022-07-23T09:11:23;21.90;99.90
12926;DHT22;6529;50.566;9.774;2022-07-23T09:13:53;22.00;99.90
12926;DHT22;6529;50.566;9.774;2022-07-23T09:16:30;22.10;99.90
12926;DHT22;6529;50.566;9.774;2022-07-23T09:19:02;22.10;99.90
12926;DHT22;6529;50.566;9.774;2022-07-23T09:21:30;22.20;99.90
12926;DHT22;6529;50.566;9.774;2022-07-23T09:24:02;22.40;99.90
12926;DHT22;6529;50.566;9.774;2022-07-23T09:26:45;22.60;99.90
12926;DHT22;6529;50.566;9.774;2022-07-23T09:29:18;22.50;99.90
12926;DHT22;6529;50.566;9.774;2022-07-23T09:31:50;22.50;99.90
12926;DHT22;6529;50.566;9.774;2022-07-23T09:34:20;22.40;99.90
12926;DHT22;6529;50.566;9.774;2022-07-23T09:36:47;22.40;99.90
12926;DHT22;6529;50.566;9.774;2022-07-23T09:39:14;22.60;99.90
12926;DHT22;6529;50.566;9.774;2022-07-23T09:41:43;22.90;99.90
12926;DHT22;6529;50.566;9.774;2022-07-23T09:44:19;23.00;99.90
12926;DHT22;6529;50.566;9.774;2022-07-23T09:46:47;22.50;99.90
12926;DHT22;6529;50.566;9.774;2022-07-23T09:49:21;22.40;99.90
12926;DHT22;6529;50.566;9.774;2022-07-23T09:51:55;22.70;99.90
12926;DHT22;6529;50.566;9.774;2022-07-23T09:57:02;22.60;99.90
12926;DHT22;6529;50.566;9.774;2022-07-23T09:59:33;22.60;99.90
12926;DHT22;6529;50.566;9.774;2022-07-23T10:02:00;23.00;99.90
12926;DHT22;6529;50.566;9.774;2022-07-23T10:04:27;23.30;99.90
12926;DHT22;6529;50.566;9.774;2022-07-23T10:06:55;23.60;99.90
12926;DHT22;6529;50.566;9.774;2022-07-23T10:09:33;23.90;99.90
12926;DHT22;6529;50.566;9.774;2022-07-23T10:12:01;24.00;99.90
12926;DHT22;6529;50.566;9.774;2022-07-23T10:14:46;24.00;99.90
12926;DHT22;6529;50.566;9.774;2022-07-23T10:17:12;24.10;99.90
12926;DHT22;6529;50.566;9.774;2022-07-23T10:19:38;24.20;99.90
12926;DHT22;6529;50.566;9.774;2022-07-23T10:22:08;24.30;99.90
12926;DHT22;6529;50.566;9.774;2022-07-23T10:28:23;24.20;99.90
12926;DHT22;6529;50.566;9.774;2022-07-23T10:36:27;25.20;99.90
12926;DHT22;6529;50.566;9.774;2022-07-23T10:39:05;25.60;99.90
12926;DHT22;6529;50.566;9.774;2022-07-23T10:41:38;25.70;99.90
12926;DHT22;6529;50.566;9.774;2022-07-23T10:46:31;26.20;99.90
12926;DHT22;6529;50.566;9.774;2022-07-23T10:49:25;25.90;99.90
12926;DHT22;6529;50.566;9.774;2022-07-23T10:54:39;25.30;99.90
12926;DHT22;6529;50.566;9.774;2022-07-23T10:57:06;25.50;99.90
12926;DHT22;6529;50.566;9.774;2022-07-23T11:02:44;25.30;99.90
12926;DHT22;6529;50.566;9.774;2022-07-23T11:05:13;25.70;99.90
12926;DHT22;6529;50.566;9.774;2022-07-23T11:10:34;26.10;99.90
12926;DHT22;6529;50.566;9.774;2022-07-23T11:16:13;26.60;99.90
12926;DHT22;6529;50.566;9.774;2022-07-23T11:24:09;26.80;99.90
12926;DHT22;6529;50.566;9.774;2022-07-23T11:32:19;26.80;99.90
12926;DHT22;6529;50.566;9.774;2022-07-23T11:34:47;27.40;99.90
12926;DHT22;6529;50.566;9.774;2022-07-23T11:39:58;27.90;99.80
12926;DHT22;6529;50.566;9.774;2022-07-23T11:42:24;27.90;99.90
12926;DHT22;6529;50.566;9.774;2022-07-23T11:44:51;27.40;98.90
12926;DHT22;6529;50.566;9.774;2022-07-23T11:47:22;27.30;99.50
12926;DHT22;6529;50.566;9.774;2022-07-23T11:49:53;27.30;99.70
12926;DHT22;6529;50.566;9.774;2022-07-23T11:52:19;27.40;98.70
12926;DHT22;6529;50.566;9.774;2022-07-23T11:54:57;27.20;97.70
12926;DHT22;6529;50.566;9.774;2022-07-23T11:57:30;26.70;99.50
12926;DHT22;6529;50.566;9.774;2022-07-23T12:00:02;27.10;99.90
12926;DHT22;6529;50.566;9.774;2022-07-23T12:02:28;27.70;99.20
12926;DHT22;6529;50.566;9.774;2022-07-23T12:04:54;28.40;97.50
12926;DHT22;6529;50.566;9.774;2022-07-23T12:09:48;28.30;96.90
12926;DHT22;6529;50.566;9.774;2022-07-23T12:12:14;28.60;96.70
12926;DHT22;6529;50.566;9.774;2022-07-23T12:14:58;28.80;97.40
12926;DHT22;6529;50.566;9.774;2022-07-23T12:17:28;28.30;95.10
12926;DHT22;6529;50.566;9.774;2022-07-23T12:19:56;27.90;95.60
12926;DHT22;6529;50.566;9.774;2022-07-23T12:22:24;27.40;96.80
12926;DHT22;6529;50.566;9.774;2022-07-23T12:25:01;27.10;97.70
12926;DHT22;6529;50.566;9.774;2022-07-23T12:27:28;27.50;98.30
12926;DHT22;6529;50.566;9.774;2022-07-23T12:29:54;27.50;96.40
12926;DHT22;6529;50.566;9.774;2022-07-23T12:32:23;26.90;96.80
12926;DHT22;6529;50.566;9.774;2022-07-23T12:35:04;26.40;97.80
12926;DHT22;6529;50.566;9.774;2022-07-23T12:37:37;26.10;98.40
12926;DHT22;6529;50.566;9.774;2022-07-23T12:40:51;26.20;99.00
12926;DHT22;6529;50.566;9.774;2022-07-23T12:48:32;27.00;95.50
12926;DHT22;6529;50.566;9.774;2022-07-23T12:51:14;27.20;94.70
12926;DHT22;6529;50.566;9.774;2022-07-23T12:56:08;27.40;95.50
12926;DHT22;6529;50.566;9.774;2022-07-23T13:03:57;28.20;94.20
12926;DHT22;6529;50.566;9.774;2022-07-23T13:06:25;28.60;93.40
12926;DHT22;6529;50.566;9.774;2022-07-23T13:08:50;29.00;93.00
12926;DHT22;6529;50.566;9.774;2022-07-23T13:11:16;28.80;90.10
12926;DHT22;6529;50.566;9.774;2022-07-23T13:13:42;28.80;90.50
12926;DHT22;6529;50.566;9.774;2022-07-23T13:16:08;29.30;91.70
12926;DHT22;6529;50.566;9.774;2022-07-23T13:18:33;29.70;89.90
12926;DHT22;6529;50.566;9.774;2022-07-23T13:20:59;29.90;83.60
12926;DHT22;6529;50.566;9.774;2022-07-23T13:23:26;30.30;85.50
12926;DHT22;6529;50.566;9.774;2022-07-23T13:25:52;30.10;83.60
12926;DHT22;6529;50.566;9.774;2022-07-23T13:28:18;29.60;85.60
12926;DHT22;6529;50.566;9.774;2022-07-23T13:30:45;29.50;88.30
12926;DHT22;6529;50.566;9.774;2022-07-23T13:33:13;29.80;83.80
12926;DHT22;6529;50.566;9.774;2022-07-23T13:35:38;30.00;84.00
12926;DHT22;6529;50.566;9.774;2022-07-23T13:38:05;29.90;83.30
12926;DHT22;6529;50.566;9.774;2022-07-23T13:40:34;29.90;78.90
12926;DHT22;6529;50.566;9.774;2022-07-23T13:43:00;29.80;77.10
12926;DHT22;6529;50.566;9.774;2022-07-23T13:45:26;29.40;80.30
12926;DHT22;6529;50.566;9.774;2022-07-23T13:47:52;29.40;82.40
12926;DHT22;6529;50.566;9.774;2022-07-23T13:50:18;29.80;79.80
12926;DHT22;6529;50.566;9.774;2022-07-23T13:52:44;29.70;77.30
12926;DHT22;6529;50.566;9.774;2022-07-23T13:55:10;29.40;78.10
12926;DHT22;6529;50.566;9.774;2022-07-23T13:57:35;29.20;80.00
12926;DHT22;6529;50.566;9.774;2022-07-23T14:00:03;29.40;79.30
12926;DHT22;6529;50.566;9.774;2022-07-23T14:02:30;29.20;79.60
12926;DHT22;6529;50.566;9.774;2022-07-23T14:04:55;29.40;79.50
12926;DHT22;6529;50.566;9.774;2022-07-23T14:07:22;29.90;78.30
12926;DHT22;6529;50.566;9.774;2022-07-23T14:09:48;30.30;71.60
12926;DHT22;6529;50.566;9.774;2022-07-23T14:12:14;30.10;70.80
12926;DHT22;6529;50.566;9.774;2022-07-23T14:14:40;30.20;72.10
12926;DHT22;6529;50.566;9.774;2022-07-23T14:17:06;30.20;69.90
12926;DHT22;6529;50.566;9.774;2022-07-23T14:19:31;30.20;68.70
12926;DHT22;6529;50.566;9.774;2022-07-23T14:21:57;30.20;67.60
12926;DHT22;6529;50.566;9.774;2022-07-23T14:24:23;30.20;68.10
12926;DHT22;6529;50.566;9.774;2022-07-23T14:26:48;30.20;69.60
12926;DHT22;6529;50.566;9.774;2022-07-23T14:29:14;30.30;68.00
12926;DHT22;6529;50.566;9.774;2022-07-23T14:31:39;30.60;63.20
12926;DHT22;6529;50.566;9.774;2022-07-23T14:34:05;30.50;66.60
12926;DHT22;6529;50.566;9.774;2022-07-23T14:36:31;30.50;66.60
12926;DHT22;6529;50.566;9.774;2022-07-23T14:38:56;30.50;67.80
12926;DHT22;6529;50.566;9.774;2022-07-23T14:41:22;30.50;66.60
12926;DHT22;6529;50.566;9.774;2022-07-23T14:43:47;30.30;65.50
12926;DHT22;6529;50.566;9.774;2022-07-23T14:46:14;30.00;64.90
12926;DHT22;6529;50.566;9.774;2022-07-23T14:48:39;29.80;65.90
12926;DHT22;6529;50.566;9.774;2022-07-23T14:51:05;29.50;67.30
12926;DHT22;6529;50.566;9.774;2022-07-23T14:53:31;29.40;68.30
12926;DHT22;6529;50.566;9.774;2022-07-23T14:55:56;29.20;67.80
12926;DHT22;6529;50.566;9.774;2022-07-23T14:58:23;28.90;67.20
12926;DHT22;6529;50.566;9.774;2022-07-23T15:00:49;28.50;66.30
12926;DHT22;6529;50.566;9.774;2022-07-23T15:03:15;28.30;69.90
12926;DHT22;6529;50.566;9.774;2022-07-23T15:05:40;28.60;69.10
12926;DHT22;6529;50.566;9.774;2022-07-23T15:08:06;29.10;68.10
12926;DHT22;6529;50.566;9.774;2022-07-23T15:10:31;29.30;70.90
12926;DHT22;6529;50.566;9.774;2022-07-23T15:12:57;29.30;69.80
12926;DHT22;6529;50.566;9.774;2022-07-23T15:15:23;29.90;71.10
12926;DHT22;6529;50.566;9.774;2022-07-23T15:17:48;30.30;68.50
12926;DHT22;6529;50.566;9.774;2022-07-23T15:20:14;30.40;64.60
12926;DHT22;6529;50.566;9.774;2022-07-23T15:22:40;30.10;66.00
12926;DHT22;6529;50.566;9.774;2022-07-23T15:25:06;30.30;66.50
12926;DHT22;6529;50.566;9.774;2022-07-23T15:27:32;30.60;65.70
12926;DHT22;6529;50.566;9.774;2022-07-23T15:29:57;30.90;60.50
12926;DHT22;6529;50.566;9.774;2022-07-23T15:32:23;31.00;62.00
12926;DHT22;6529;50.566;9.774;2022-07-23T15:34:54;30.80;61.30
12926;DHT22;6529;50.566;9.774;2022-07-23T15:37:20;30.30;61.20
12926;DHT22;6529;50.566;9.774;2022-07-23T15:39:46;29.90;60.30
12926;DHT22;6529;50.566;9.774;2022-07-23T15:42:11;29.90;61.50
12926;DHT22;6529;50.566;9.774;2022-07-23T15:44:37;30.20;59.90
12926;DHT22;6529;50.566;9.774;2022-07-23T15:47:02;30.20;59.00
12926;DHT22;6529;50.566;9.774;2022-07-23T15:49:28;30.20;59.30
12926;DHT22;6529;50.566;9.774;2022-07-23T15:51:54;30.30;58.50
12926;DHT22;6529;50.566;9.774;2022-07-23T15:54:20;30.20;58.20
12926;DHT22;6529;50.566;9.774;2022-07-23T15:56:47;29.90;59.50
12926;DHT22;6529;50.566;9.774;2022-07-23T15:59:13;29.90;59.40
12926;DHT22;6529;50.566;9.774;2022-07-23T16:01:38;29.80;59.60
12926;DHT22;6529;50.566;9.774;2022-07-23T16:04:04;30.00;62.10
12926;DHT22;6529;50.566;9.774;2022-07-23T16:06:32;30.30;59.00
12926;DHT22;6529;50.566;9.774;2022-07-23T16:08:57;30.30;57.80
12926;DHT22;6529;50.566;9.774;2022-07-23T16:11:24;30.00;57.90
12926;DHT22;6529;50.566;9.774;2022-07-23T16:13:49;29.60;58.80
12926;DHT22;6529;50.566;9.774;2022-07-23T16:16:15;29.30;59.50
12926;DHT22;6529;50.566;9.774;2022-07-23T16:18:40;29.00;60.30
12926;DHT22;6529;50.566;9.774;2022-07-23T16:21:06;28.70;60.50
12926;DHT22;6529;50.566;9.774;2022-07-23T16:23:32;28.50;63.10
12926;DHT22;6529;50.566;9.774;2022-07-23T16:25:58;28.60;64.40
12926;DHT22;6529;50.566;9.774;2022-07-23T16:28:24;28.90;63.20
12926;DHT22;6529;50.566;9.774;2022-07-23T16:30:49;28.90;62.30
12926;DHT22;6529;50.566;9.774;2022-07-23T16:33:23;28.80;62.80
12926;DHT22;6529;50.566;9.774;2022-07-23T16:35:49;28.50;64.30
12926;DHT22;6529;50.566;9.774;2022-07-23T16:38:15;28.40;66.10